Latest Coastal Weather Observations for Kiama

IDN60701

Issued at 3:05 am EST Thursday 24 April 2014 (issued every 10 minutes, with the page automatically refreshed every 10 minutes)

About coastal observations | Map of coastal stations | Coastal observations for NSW | Marine services | Other Formats
Station Details ID: 068242 Name: KIAMA (BOMBO HEADLAND) Lat: -34.65 Lon: 150.86 Height: 15.5 m
Data from the previous 72 hours. | See also: Recent months at Kiama
Date/Time
EST
Temp

°C
Wind Pressure Rain
since 9am
mm
Weather Cloud Vis
km
Sea
Height
m
Swell
Dir
 
Speed
knots
Gust
knots
hPa Trend Height
m
Period
s
Dir
24/03:00am 17.6 N 6 7 - - 0.0 - - - - - - -
24/02:30am 17.8 N 6 7 - - - - - - - - - -
24/02:00am 17.7 NNW 7 9 - - - - - - - - - -
24/01:30am 18.2 NNW 6 8 - - - - - - - - - -
24/01:00am 18.4 N 6 9 - - - - - - - - - -
24/12:30am 18.3 N 7 9 - - - - - - - - - -
24/12:00am 18.2 N 6 8 - - - - - - - - - -
 
Date/Time
EST
Temp

°C
Wind Pressure Rain
since 9am
mm
Weather Cloud Vis
km
Sea
Height
m
Swell
Dir
 
Speed
knots
Gust
knots
hPa Trend Height
m
Period
s
Dir
23/11:30pm 18.5 NNW 7 9 - - - - - - - - - -
23/11:00pm 18.1 NNW 6 8 - - - - - - - - - -
23/10:30pm 17.8 NNW 5 7 - - - - - - - - - -
23/10:00pm 18.0 NW 6 7 - - - - - - - - - -
23/09:30pm 17.6 N 3 4 - - - - - - - - - -
23/09:00pm 17.6 N 4 5 - - 0.0 - - - - - - -
23/08:30pm 18.1 CALM 0 0 - - - - - - - - - -
23/08:00pm 18.7 WNW 3 5 - - - - - - - - - -
23/07:30pm 18.6 WNW 5 7 - - - - - - - - - -
23/07:00pm 19.0 NW 5 6 - - - - - - - - - -
23/06:30pm 19.2 NW 4 5 - - - - - - - - - -
23/06:00pm 20.0 NNW 4 5 - - - - - - - - - -
23/05:30pm 21.1 N 7 10 - - - - - - - - - -
23/05:00pm 21.4 N 8 10 - - - - - - - - - -
23/04:30pm 21.9 N 6 7 - - - - - - - - - -
23/04:00pm 22.4 N 6 7 - - - - - - - - - -
23/03:30pm 22.0 NNE 5 7 - - - - - - - - - -
23/10:30am - ESE 1 2 - - 0.0 - - - - - - -
23/10:11am 27.7 SE 2 4 - - 0.0 - - - - - - -
23/10:00am 22.5 SE 3 5 - - 0.0 - - - - - - -
23/09:30am 22.1 W 3 5 - - 0.0 - - - - - - -
23/09:00am 20.2 W 3 5 - - 0.0 - - - - - - -
23/08:30am 19.7 W 5 7 - - 0.0 - - - - - - -
23/08:00am 18.7 W 4 5 - - 0.0 - - - - - - -
23/07:30am 18.1 WNW 5 6 - - 0.0 - - - - - - -
23/07:00am 17.4 WNW 6 7 - - 0.0 - - - - - - -
23/06:30am 16.8 WNW 6 8 - - 0.0 - - - - - - -
23/06:00am 16.2 W 5 8 - - 0.0 - - - - - - -
23/05:30am 15.1 WSW 4 5 - - 0.0 - - - - - - -
23/05:00am 15.4 W 1 4 - - 0.0 - - - - - - -
23/04:30am 15.9 SW 5 6 - - 0.0 - - - - - - -
23/04:00am 16.7 W 7 8 - - 0.0 - - - - - - -
23/03:30am 16.8 W 6 7 - - 0.0 - - - - - - -
23/03:00am 16.8 W 6 7 - - 0.0 - - - - - - -
23/02:30am 17.2 WNW 6 7 - - 0.0 - - - - - - -
23/02:00am 17.3 W 6 7 - - 0.0 - - - - - - -
23/01:30am 17.3 WNW 5 6 - - 0.0 - - - - - - -
23/01:00am 16.7 W 4 5 - - 0.0 - - - - - - -
23/12:30am 17.7 NW 6 9 - - 0.0 - - - - - - -
23/12:00am 16.9 WNW 4 6 - - 0.0 - - - - - - -
 
Date/Time
EST
Temp

°C
Wind Pressure Rain
since 9am
mm
Weather Cloud Vis
km
Sea
Height
m
Swell
Dir
 
Speed
knots
Gust
knots
hPa Trend Height
m
Period
s
Dir
22/11:30pm 16.3 CALM 0 3 - - 0.0 - - - - - - -
22/11:00pm 18.2 WNW 5 9 - - 0.0 - - - - - - -
22/10:30pm 18.9 W 8 12 - - 0.0 - - - - - - -
22/10:00pm 19.2 W 7 13 - - 0.0 - - - - - - -
22/09:30pm 18.5 W 5 9 - - 0.0 - - - - - - -
22/09:00pm 19.1 W 6 8 - - 0.0 - - - - - - -
22/08:30pm 17.8 WSW 3 6 - - 0.0 - - - - - - -
22/08:00pm 19.5 WSW 6 11 - - 0.0 - - - - - - -
22/07:30pm 18.9 NNW 5 8 - - 0.0 - - - - - - -
22/07:00pm 19.4 NW 6 10 - - 0.0 - - - - - - -
22/06:30pm 17.9 WNW 3 4 - - 0.0 - - - - - - -
22/06:00pm 18.5 CALM 0 0 - - 0.0 - - - - - - -
22/05:30pm 20.0 N 4 6 - - 0.0 - - - - - - -
22/05:00pm 20.8 N 5 7 - - 0.0 - - - - - - -
22/04:30pm 21.3 N 7 9 - - 0.0 - - - - - - -
22/04:00pm 23.0 N 5 7 - - 0.0 - - - - - - -
22/03:30pm 22.8 NNE 6 7 - - 0.0 - - - - - - -
22/03:00pm 22.2 N 7 9 - - 0.0 - - - - - - -
22/02:30pm 23.3 NNE 7 9 - - 0.0 - - - - - - -
22/02:00pm 23.4 NNE 6 9 - - 0.0 - - - - - - -
22/01:30pm 23.6 NNE 7 9 - - 0.0 - - - - - - -
22/01:00pm 23.7 NNE 6 8 - - 0.0 - - - - - - -
22/12:30pm 24.1 NNE 6 9 - - 0.0 - - - - - - -
22/12:00pm 24.2 NE 5 6 - - 0.0 - - - - - - -
22/11:30am 24.4 N 4 5 - - 0.0 - - - - - - -
22/11:00am 23.4 N 6 8 - - 0.0 - - - - - - -
22/10:30am 22.7 N 7 9 - - 0.0 - - - - - - -
22/10:00am 21.8 N 5 9 - - 0.0 - - - - - - -
22/09:30am 20.7 N 4 7 - - 0.0 - - - - - - -
22/09:00am 19.5 NNW 3 5 - - 0.0 - - - - - - -
22/08:30am 18.1 NW 3 5 - - 0.0 - - - - - - -
22/08:00am 17.7 WNW 4 7 - - 0.0 - - - - - - -
22/07:30am 16.2 WNW 5 7 - - 0.0 - - - - - - -
22/07:00am 15.1 WNW 5 7 - - 0.0 - - - - - - -
22/06:30am 14.5 WNW 6 7 - - 0.0 - - - - - - -
22/06:00am 15.5 WNW 6 8 - - 0.0 - - - - - - -
22/05:30am 15.1 WNW 7 8 - - 0.0 - - - - - - -
22/05:00am 15.5 WNW 6 8 - - 0.0 - - - - - - -
22/04:30am 14.7 WNW 7 8 - - 0.0 - - - - - - -
22/04:00am 13.9 WNW 3 4 - - 0.0 - - - - - - -
22/03:30am 14.4 NW 4 5 - - 0.0 - - - - - - -
22/03:00am 14.8 NW 4 6 - - 0.0 - - - - - - -
22/02:30am 14.1 NNW 4 4 - - 0.0 - - - - - - -
22/02:00am 13.6 NNW 1 4 - - 0.0 - - - - - - -
22/01:30am 14.0 NW 1 3 - - 0.0 - - - - - - -
22/01:00am 15.1 W 4 5 - - 0.0 - - - - - - -
22/12:30am 15.7 WNW 5 7 - - 0.0 - - - - - - -
22/12:00am 15.6 W 6 8 - - 0.0 - - - - - - -
 
Date/Time
EST
Temp

°C
Wind Pressure Rain
since 9am
mm
Weather Cloud Vis
km
Sea
Height
m
Swell
Dir
 
Speed
knots
Gust
knots
hPa Trend Height
m
Period
s
Dir
21/11:30pm 15.8 W 6 8 - - 0.0 - - - - - - -
21/11:00pm 16.1 WNW 6 7 - - 0.0 - - - - - - -
21/10:30pm 16.2 WNW 5 6 - - 0.0 - - - - - - -
21/10:00pm 16.1 W 5 6 - - 0.0 - - - - - - -
21/09:30pm 15.6 W 6 6 - - 0.0 - - - - - - -
21/09:00pm 16.1 WNW 6 7 - - 0.0 - - - - - - -
21/08:30pm 16.2 W 5 6 - - 0.0 - - - - - - -
21/08:00pm 16.5 W 5 6 - - 0.0 - - - - - - -
21/07:30pm 16.4 W 4 5 - - 0.0 - - - - - - -
21/07:00pm 17.0 W 4 5 - - 0.0 - - - - - - -
21/06:30pm 17.2 W 4 5 - - 0.0 - - - - - - -
21/06:00pm 17.7 SW 3 3 - - 0.0 - - - - - - -
21/05:30pm 19.2 SSW 5 7 - - 0.0 - - - - - - -
21/05:00pm 20.0 S 7 8 - - 0.0 - - - - - - -
21/04:30pm 20.5 S 8 10 - - 0.0 - - - - - - -
21/04:00pm 21.1 S 9 12 - - 0.0 - - - - - - -
21/03:30pm 21.3 S 10 13 - - 0.0 - - - - - - -
21/03:00pm 21.5 S 10 14 - - 0.0 - - - - - - -
21/02:30pm 21.6 S 10 13 - - 0.0 - - - - - - -
21/02:00pm 21.5 S 11 14 - - 0.0 - - - - - - -
21/01:30pm 21.5 S 13 16 - - 0.0 - - - - - - -
21/01:00pm 21.8 S 11 15 - - 0.0 - - - - - - -
21/12:30pm 22.1 S 9 12 - - 0.0 - - - - - - -
21/12:00pm 22.5 S 9 11 - - 0.0 - - - - - - -
21/11:30am 21.7 S 8 11 - - 0.0 - - - - - - -
21/11:00am 21.7 S 8 11 - - 0.0 - - - - - - -
21/10:30am 21.3 S 8 11 - - 0.0 - - - - - - -
21/10:00am 21.7 S 2 4 - - 0.0 - - - - - - -
21/09:30am 20.8 CALM 0 1 - - 0.0 - - - - - - -
21/09:00am 19.9 CALM 0 0 - - 0.0 - - - - - - -
21/08:30am 18.3 CALM 0 2 - - 0.0 - - - - - - -
21/08:00am 16.6 NW 1 2 - - 0.0 - - - - - - -
21/07:30am 15.0 WNW 3 5 - - 0.0 - - - - - - -
21/07:00am 13.5 WNW 4 5 - - 0.0 - - - - - - -
21/06:30am 12.7 WNW 4 6 - - 0.0 - - - - - - -
21/06:00am 12.9 WNW 6 8 - - 0.0 - - - - - - -
21/05:30am 12.7 WNW 4 6 - - 0.0 - - - - - - -
21/05:00am 13.2 WNW 6 9 - - 0.0 - - - - - - -
21/04:30am 13.3 WNW 5 7 - - 0.0 - - - - - - -
21/04:00am 13.5 WNW 6 8 - - 0.0 - - - - - - -
21/03:30am 13.3 WNW 4 6 - - 0.0 - - - - - - -

Other Formats:

Comma delimited format used in spreadsheet applications
http://www.bom.gov.au/fwo/IDN60701/IDN60701.95749.axf

JavaScript Object Notation format (JSON) in row-major order
http://www.bom.gov.au/fwo/IDN60701/IDN60701.95749.json